EGEO

Details ICAO EGEO (OBN)
Name Oban
Region United Kingdom
Timezone Europe/London (UTC+1.0)
Plans Departing 80
Arriving 167
Stats Elevation 23 ft / 7 m (AMSL)
Location 56.463600° -5.399610°
Runways 1
Magnetic Variation 2.655° W
Sunrise 2021-05-08 04:21:20 UTC / 2021-05-08 05:21:20 Local
Sunset 2021-05-08 20:17:26 UTC / 2021-05-08 21:17:26 Local
Advertisement - Login to hide

Runways

ID Width Length Bearing (true/mag) Surface Threshold Overrun Markings Lighting
01 98 ft / 30 m 4,141 ft / 1,262 m 5.57° / 8.23° ASPHALT 407 ft / 124 m 0 ft / 0 m VISUAL EDGE THRESHOLD
19 98 ft / 30 m 4,141 ft / 1,262 m 185.57° / 188.23° ASPHALT 659 ft / 201 m 0 ft / 0 m VISUAL EDGE THRESHOLD MALS

Map

Weather


0- 5 10 15 20 25 30 35+ Temperature / °C

Clouds and Precipitation
Forecast for 2021-03-22 12:00 UTC. Updated 2 months ago

Ground ~20,000 ft ~40,000 ft Winds

METAR

EGEO 080850Z 11000KT 9999 FEW045 08/M01 Q0999

TAF

Not found

Frequencies

Recorded 118.05 MHz Oban Information
Warning: Do not use this data for real-world aviation or navigation. No guarantee of current accuracy is given.